• Join FlightAware (Why Join?)
  • Login
  • US Flag 
10:51AM EST


 

Airport Tracker/Info


-or-


 

Live Flight TrackerFlight Track Log ✈ AWI3551 ✈ 04-Jul-2013 ✈ KBUF - KPHL

Flight Track Log - Related Links

Times and Time Zones

All times are in EDT time to prevent confusion due to time zone crossing. See the AWI3551 flight status page for this flight to view local times or setup timezone preferences in your user account.

Time Position Orientation Groundspeed Altitude Reporting Facility
EDT Latitude Longitude Course Direction KTS MPH feet Rate Location/Type
05:38AM 42.9333 -78.7500 173° South 158 182 1,400  Level Buffalo TRACON
05:40AM 42.8506 -78.7850 197° South 216 249 4,400 1,800 Climbing Cleveland Center
05:41AM 42.6411 -78.6882 172° South  Level FlightAware Approximate
05:41AM 42.7817 -78.7700 171° South 227 261 6,200  Level Cleveland Center
05:42AM 42.5442 -78.6688 172° South  Level FlightAware Approximate
05:42AM 42.7147 -78.7550 171° South 262 302 8,400  Level Cleveland Center
05:43AM 42.4469 -78.6523 173° South  Level FlightAware Approximate
05:43AM 42.6433 -78.7344 168° South 266 306 10,600  Level Cleveland Center
05:44AM 42.5578 -78.7172 172° South 288 331 11,800 1,440 Climbing Cleveland Center
05:45AM 42.4678 -78.6972 171° South 309 356 13,500 1,560 Climbing Cleveland Center
05:46AM 42.3778 -78.6803 172° South 324 373 15,000 1,320 Climbing Cleveland Center
05:47AM 42.2858 -78.6578 170° South 335 386 16,200 1,200 Climbing Cleveland Center
05:48AM 42.1894 -78.6383 171° South 341 392 17,400 1,020 Climbing Cleveland Center
05:49AM 42.0808 -78.6247 175° South 347 399 18,300 840 Climbing Cleveland Center
05:50AM 41.9850 -78.6250 180° South 352 405 19,100 900 Climbing Cleveland Center
05:51AM 41.8850 -78.6225 179° South 352 405 20,100 840 Climbing Cleveland Center
05:52AM 41.7867 -78.6142 176° South 352 405 20,800 660 Climbing Cleveland Center
05:53AM 41.6919 -78.5533 154° Southeast 352 405 21,500 600 Climbing Cleveland Center
05:54AM 41.6011 -78.4839 150° Southeast 368 423 22,100 540 Climbing Cleveland Center
05:55AM 41.5058 -78.4147 151° Southeast 379 436 22,600 420 Climbing Cleveland Center
05:56AM 41.4086 -78.3461 152° Southeast 396 456 23,000 180 Climbing Cleveland Center
05:57AM 41.3075 -78.2703 151° Southeast 402 463 23,000  Level New York Center
05:58AM 41.2036 -78.1981 152° Southeast 408 470 23,000  Level New York Center
05:59AM 41.1000 -78.1233 151° Southeast 419 482 23,000  Level New York Center
06:00AM 40.9958 -78.0514 152° Southeast 419 482 23,000  Level New York Center
06:01AM 40.8969 -77.9667 147° Southeast 419 482 23,000 -420 Level New York Center
06:02AM 40.8186 -77.8461 131° Southeast 419 482 22,200 -1,020 Descending New York Center
06:03AM 40.7403 -77.7256 131° Southeast 429 494 21,000 -1,200 Descending New York Center
06:04AM 40.6617 -77.6083 131° Southeast 429 494 19,800 -1,320 Descending New York Center
06:05AM 40.5811 -77.4881 131° Southeast 412 474 18,400 -900 Descending New York Center
06:06AM 40.5147 -77.3725 127° Southeast 396 456 18,000 -240 Descending New York Center
06:07AM 40.4678 -77.2397 115° Southeast 396 456 18,000  Level New York Center
06:08AM 40.4208 -77.1069 115° Southeast 402 463 18,000  Level New York Center
06:09AM 40.3714 -76.9744 116° Southeast 402 463 18,000  Level New York Center
06:10AM 40.3242 -76.8394 115° Southeast 402 463 18,000  Level New York Center
06:11AM 40.2917 -76.7006 107° East 397 457 18,000 -480 Level New York Center
06:12AM 40.2611 -76.5592 106° East 403 464 17,100 -1,320 Descending New York Center
06:13AM 40.2336 -76.4400 107° East 388 447 15,400 -1,800 Descending New York Center
06:14AM 40.2033 -76.2881 105° East 388 447 13,500 -1,800 Descending New York Center
06:15AM 40.1739 -76.1581 106° East 388 447 11,900 -1,500 Descending New York Center
06:16AM 40.1458 -76.0389 107° East 370 426 10,500 -1,260 Descending New York Center
06:17AM 40.1269 -75.9481 105° East 313 360 9,400 -1,140 Descending New York Center
06:18AM 40.1022 -75.8456 107° East 297 342 8,300 -720 Descending New York Center
06:19AM 40.0989 -75.7286 92° East 284 327 8,000 -180 Descending New York Center
06:20AM 40.1133 -75.6347 79° East 284 327 8,000 -180 Level New York Center
06:21AM 40.1328 -75.5167 78° East 295 339 7,700 -840 Descending New York Center
06:22AM 40.1469 -75.4225 79° East 295 339 6,400 -900 Descending New York Center
06:23AM 40.1319 -75.3211 101° East 273 314 6,000 -240 Descending New York Center
06:24AM 40.0925 -75.2642 132° Southeast 223 257 6,000  Level New York Center
06:25AM 40.0367 -75.2550 173° South 201 231 6,000  Level New York Center
06:26AM 39.9683 -75.2400 170° South 220 253 6,000 -180 Level New York Center
06:27AM 39.9628 -75.1664 96° East 176 203 5,700 -540 Descending New York Center
06:28AM 39.9825 -75.0836 73° East 208 239 5,000 -480 Descending New York Center
06:29AM 40.0022 -75.0036 72° East 226 260 4,800 -540 Descending New York Center
06:30AM 40.0092 -74.9256 83° East 226 260 4,000 -420 Descending New York Center
06:31AM 39.9500 -74.9167 173° South 190 219 4,000 -60 Level Philadelphia TRACON
06:32AM 39.9333 -74.9667 247° West 171 197 3,900 -480 Descending Philadelphia TRACON
06:33AM 39.9167 -75.0167 247° West 157 181 3,100 -900 Descending Philadelphia TRACON